sensor_id;sensor_type;location;lat;lon;timestamp;temperature;humidity
16955;DHT22;8594;52.052;8.354;2023-07-13T11:11:51;25.50;99.90
16955;DHT22;8594;52.052;8.354;2023-07-13T11:14:29;25.60;99.90
16955;DHT22;8594;52.052;8.354;2023-07-13T11:17:35;25.20;99.90
16955;DHT22;8594;52.052;8.354;2023-07-13T11:20:33;24.80;99.90
16955;DHT22;8594;52.052;8.354;2023-07-13T11:25:55;25.30;99.90
16955;DHT22;8594;52.052;8.354;2023-07-13T11:28:25;25.50;99.90
16955;DHT22;8594;52.052;8.354;2023-07-13T11:31:02;25.30;99.90
16955;DHT22;8594;52.052;8.354;2023-07-13T11:33:59;25.60;99.90
16955;DHT22;8594;52.052;8.354;2023-07-13T11:36:39;25.60;99.90
16955;DHT22;8594;52.052;8.354;2023-07-13T11:39:17;25.40;99.90
16955;DHT22;8594;52.052;8.354;2023-07-13T11:41:50;25.10;99.90
16955;DHT22;8594;52.052;8.354;2023-07-13T11:44:23;24.90;99.90
16955;DHT22;8594;52.052;8.354;2023-07-13T11:46:54;25.00;99.90
16955;DHT22;8594;52.052;8.354;2023-07-13T11:49:28;24.90;99.90
16955;DHT22;8594;52.052;8.354;2023-07-13T11:51:57;25.00;99.90
16955;DHT22;8594;52.052;8.354;2023-07-13T11:54:28;24.90;99.90
16955;DHT22;8594;52.052;8.354;2023-07-13T11:56:59;24.80;99.90
16955;DHT22;8594;52.052;8.354;2023-07-13T11:59:34;24.80;99.90
16955;DHT22;8594;52.052;8.354;2023-07-13T12:04:44;24.50;99.90
16955;DHT22;8594;52.052;8.354;2023-07-13T12:07:16;24.30;99.90
16955;DHT22;8594;52.052;8.354;2023-07-13T12:09:45;24.30;99.90
16955;DHT22;8594;52.052;8.354;2023-07-13T12:12:12;24.90;99.90
16955;DHT22;8594;52.052;8.354;2023-07-13T12:14:42;25.00;99.90
16955;DHT22;8594;52.052;8.354;2023-07-13T12:17:13;25.40;99.90
16955;DHT22;8594;52.052;8.354;2023-07-13T12:19:42;25.70;99.90
16955;DHT22;8594;52.052;8.354;2023-07-13T12:22:11;25.50;99.90
16955;DHT22;8594;52.052;8.354;2023-07-13T12:24:40;25.60;99.90
16955;DHT22;8594;52.052;8.354;2023-07-13T12:27:19;25.40;99.90
16955;DHT22;8594;52.052;8.354;2023-07-13T12:29:58;25.20;99.90
16955;DHT22;8594;52.052;8.354;2023-07-13T12:32:27;25.20;99.90
16955;DHT22;8594;52.052;8.354;2023-07-13T12:34:57;25.20;99.90
16955;DHT22;8594;52.052;8.354;2023-07-13T12:37:41;25.30;99.90
16955;DHT22;8594;52.052;8.354;2023-07-13T12:42:41;25.30;99.90
16955;DHT22;8594;52.052;8.354;2023-07-13T12:45:18;25.10;99.90
16955;DHT22;8594;52.052;8.354;2023-07-13T12:47:49;25.10;99.90
16955;DHT22;8594;52.052;8.354;2023-07-13T12:50:22;25.00;99.90
16955;DHT22;8594;52.052;8.354;2023-07-13T12:52:53;25.00;99.90
16955;DHT22;8594;52.052;8.354;2023-07-13T12:55:23;25.00;99.90
16955;DHT22;8594;52.052;8.354;2023-07-13T12:57:52;24.80;99.90
16955;DHT22;8594;52.052;8.354;2023-07-13T13:00:28;25.00;99.90
16955;DHT22;8594;52.052;8.354;2023-07-13T13:03:02;25.00;99.90
16955;DHT22;8594;52.052;8.354;2023-07-13T13:05:32;25.20;99.90
16955;DHT22;8594;52.052;8.354;2023-07-13T13:08:00;25.20;99.90
16955;DHT22;8594;52.052;8.354;2023-07-13T13:10:27;25.20;99.90
16955;DHT22;8594;52.052;8.354;2023-07-13T13:12:54;25.20;99.90
16955;DHT22;8594;52.052;8.354;2023-07-13T13:15:21;25.20;99.90
16955;DHT22;8594;52.052;8.354;2023-07-13T13:17:50;25.10;99.90
16955;DHT22;8594;52.052;8.354;2023-07-13T13:20:19;25.10;99.90
16955;DHT22;8594;52.052;8.354;2023-07-13T13:22:47;24.80;99.90
16955;DHT22;8594;52.052;8.354;2023-07-13T13:25:15;24.70;99.90
16955;DHT22;8594;52.052;8.354;2023-07-13T13:27:44;24.70;99.90
16955;DHT22;8594;52.052;8.354;2023-07-13T13:30:13;24.70;99.90
16955;DHT22;8594;52.052;8.354;2023-07-13T13:32:42;24.20;99.90
16955;DHT22;8594;52.052;8.354;2023-07-13T13:35:14;23.80;99.90
16955;DHT22;8594;52.052;8.354;2023-07-13T13:37:42;23.60;99.90
16955;DHT22;8594;52.052;8.354;2023-07-13T13:40:21;23.00;99.90
16955;DHT22;8594;52.052;8.354;2023-07-13T13:42:49;22.50;99.90
16955;DHT22;8594;52.052;8.354;2023-07-13T13:45:17;22.30;99.90
16955;DHT22;8594;52.052;8.354;2023-07-13T13:47:45;21.80;99.90
16955;DHT22;8594;52.052;8.354;2023-07-13T13:50:16;21.70;99.90
16955;DHT22;8594;52.052;8.354;2023-07-13T13:52:46;21.50;99.90
16955;DHT22;8594;52.052;8.354;2023-07-13T13:55:13;21.40;99.90
16955;DHT22;8594;52.052;8.354;2023-07-13T13:57:41;21.50;99.90
16955;DHT22;8594;52.052;8.354;2023-07-13T14:00:09;21.70;99.90
16955;DHT22;8594;52.052;8.354;2023-07-13T14:02:40;22.00;99.90
16955;DHT22;8594;52.052;8.354;2023-07-13T14:05:12;22.20;99.90
16955;DHT22;8594;52.052;8.354;2023-07-13T14:07:42;22.30;99.90
16955;DHT22;8594;52.052;8.354;2023-07-13T14:10:12;22.40;99.90
16955;DHT22;8594;52.052;8.354;2023-07-13T14:12:41;22.30;99.90
16955;DHT22;8594;52.052;8.354;2023-07-13T14:15:14;22.40;99.90
16955;DHT22;8594;52.052;8.354;2023-07-13T14:17:45;22.20;99.90
16955;DHT22;8594;52.052;8.354;2023-07-13T14:20:18;22.30;99.90
16955;DHT22;8594;52.052;8.354;2023-07-13T14:22:45;21.90;99.90
16955;DHT22;8594;52.052;8.354;2023-07-13T14:25:14;22.00;99.90
16955;DHT22;8594;52.052;8.354;2023-07-13T14:27:44;22.00;99.90
16955;DHT22;8594;52.052;8.354;2023-07-13T14:30:15;22.00;99.90
16955;DHT22;8594;52.052;8.354;2023-07-13T14:32:45;22.00;99.90
16955;DHT22;8594;52.052;8.354;2023-07-13T14:35:19;22.00;99.90
16955;DHT22;8594;52.052;8.354;2023-07-13T14:37:49;22.10;99.90
16955;DHT22;8594;52.052;8.354;2023-07-13T14:40:17;21.90;99.90
16955;DHT22;8594;52.052;8.354;2023-07-13T14:42:49;21.90;99.90
16955;DHT22;8594;52.052;8.354;2023-07-13T14:45:18;21.80;99.90
16955;DHT22;8594;52.052;8.354;2023-07-13T14:47:46;21.20;99.90
16955;DHT22;8594;52.052;8.354;2023-07-13T14:50:18;21.00;99.90
16955;DHT22;8594;52.052;8.354;2023-07-13T14:52:48;20.90;99.90
16955;DHT22;8594;52.052;8.354;2023-07-13T14:55:16;20.80;99.90
16955;DHT22;8594;52.052;8.354;2023-07-13T14:57:45;20.90;99.90
16955;DHT22;8594;52.052;8.354;2023-07-13T15:00:14;20.70;99.90
16955;DHT22;8594;52.052;8.354;2023-07-13T15:02:43;20.60;99.90
16955;DHT22;8594;52.052;8.354;2023-07-13T15:05:16;20.80;99.90
16955;DHT22;8594;52.052;8.354;2023-07-13T15:07:45;21.00;99.90
16955;DHT22;8594;52.052;8.354;2023-07-13T15:10:14;21.30;99.90
16955;DHT22;8594;52.052;8.354;2023-07-13T15:12:42;21.20;99.90
16955;DHT22;8594;52.052;8.354;2023-07-13T15:15:09;21.30;99.90
16955;DHT22;8594;52.052;8.354;2023-07-13T15:17:38;21.20;99.90
16955;DHT22;8594;52.052;8.354;2023-07-13T15:20:19;21.20;99.90
16955;DHT22;8594;52.052;8.354;2023-07-13T15:22:48;21.30;99.90
16955;DHT22;8594;52.052;8.354;2023-07-13T15:25:18;21.50;99.90
16955;DHT22;8594;52.052;8.354;2023-07-13T15:27:46;21.50;99.90
16955;DHT22;8594;52.052;8.354;2023-07-13T15:30:14;21.50;99.90
16955;DHT22;8594;52.052;8.354;2023-07-13T15:32:41;21.50;99.90
16955;DHT22;8594;52.052;8.354;2023-07-13T15:35:20;21.40;99.90
16955;DHT22;8594;52.052;8.354;2023-07-13T15:37:48;21.30;99.90
16955;DHT22;8594;52.052;8.354;2023-07-13T15:40:16;21.30;99.90
16955;DHT22;8594;52.052;8.354;2023-07-13T15:42:45;21.20;99.90
16955;DHT22;8594;52.052;8.354;2023-07-13T15:45:17;21.20;99.90
16955;DHT22;8594;52.052;8.354;2023-07-13T15:47:45;21.40;99.90
16955;DHT22;8594;52.052;8.354;2023-07-13T15:50:15;21.40;99.90
16955;DHT22;8594;52.052;8.354;2023-07-13T15:52:48;21.40;99.90
16955;DHT22;8594;52.052;8.354;2023-07-13T15:55:17;21.40;99.90
16955;DHT22;8594;52.052;8.354;2023-07-13T15:57:46;21.40;99.90
16955;DHT22;8594;52.052;8.354;2023-07-13T16:00:19;21.50;99.90
16955;DHT22;8594;52.052;8.354;2023-07-13T16:02:48;21.40;99.90
16955;DHT22;8594;52.052;8.354;2023-07-13T16:05:15;21.50;99.90
16955;DHT22;8594;52.052;8.354;2023-07-13T16:07:45;21.50;99.90
16955;DHT22;8594;52.052;8.354;2023-07-13T16:10:15;21.60;99.90
16955;DHT22;8594;52.052;8.354;2023-07-13T16:12:43;21.90;99.90
16955;DHT22;8594;52.052;8.354;2023-07-13T16:15:14;21.80;99.90
16955;DHT22;8594;52.052;8.354;2023-07-13T16:17:45;22.00;99.90
16955;DHT22;8594;52.052;8.354;2023-07-13T16:20:15;21.90;99.90
16955;DHT22;8594;52.052;8.354;2023-07-13T16:22:47;21.70;99.90
16955;DHT22;8594;52.052;8.354;2023-07-13T16:25:18;21.70;99.90
16955;DHT22;8594;52.052;8.354;2023-07-13T16:27:47;21.80;99.90
16955;DHT22;8594;52.052;8.354;2023-07-13T16:30:16;21.70;99.90
16955;DHT22;8594;52.052;8.354;2023-07-13T16:32:47;21.80;99.90
16955;DHT22;8594;52.052;8.354;2023-07-13T16:35:16;21.80;99.90
16955;DHT22;8594;52.052;8.354;2023-07-13T16:37:44;21.70;99.90
16955;DHT22;8594;52.052;8.354;2023-07-13T16:40:22;21.70;99.90
16955;DHT22;8594;52.052;8.354;2023-07-13T16:42:52;21.70;99.90
16955;DHT22;8594;52.052;8.354;2023-07-13T16:45:20;21.70;99.90
16955;DHT22;8594;52.052;8.354;2023-07-13T16:47:50;21.70;99.90
16955;DHT22;8594;52.052;8.354;2023-07-13T16:50:20;21.70;99.90
16955;DHT22;8594;52.052;8.354;2023-07-13T16:52:50;21.80;99.90
16955;DHT22;8594;52.052;8.354;2023-07-13T16:55:21;21.70;99.90
16955;DHT22;8594;52.052;8.354;2023-07-13T16:57:53;21.80;99.90
16955;DHT22;8594;52.052;8.354;2023-07-13T17:00:24;21.80;99.90
16955;DHT22;8594;52.052;8.354;2023-07-13T17:02:54;21.70;99.90
16955;DHT22;8594;52.052;8.354;2023-07-13T17:05:27;21.70;99.90
16955;DHT22;8594;52.052;8.354;2023-07-13T17:07:56;21.60;99.90
16955;DHT22;8594;52.052;8.354;2023-07-13T17:10:26;21.60;99.90
16955;DHT22;8594;52.052;8.354;2023-07-13T17:12:55;21.80;99.90
16955;DHT22;8594;52.052;8.354;2023-07-13T17:15:23;21.70;99.90
16955;DHT22;8594;52.052;8.354;2023-07-13T17:17:51;21.70;99.90
16955;DHT22;8594;52.052;8.354;2023-07-13T17:20:31;21.60;99.90
16955;DHT22;8594;52.052;8.354;2023-07-13T17:23:12;21.70;99.90
16955;DHT22;8594;52.052;8.354;2023-07-13T17:25:43;21.70;99.90
16955;DHT22;8594;52.052;8.354;2023-07-13T17:28:11;21.90;99.90
16955;DHT22;8594;52.052;8.354;2023-07-13T17:30:40;21.70;99.90
16955;DHT22;8594;52.052;8.354;2023-07-13T17:33:26;21.70;99.90
16955;DHT22;8594;52.052;8.354;2023-07-13T17:35:56;21.70;99.90
16955;DHT22;8594;52.052;8.354;2023-07-13T17:38:30;21.80;99.90
16955;DHT22;8594;52.052;8.354;2023-07-13T17:41:02;21.70;99.90
16955;DHT22;8594;52.052;8.354;2023-07-13T17:43:29;21.70;99.90
16955;DHT22;8594;52.052;8.354;2023-07-13T17:45:57;21.70;99.90
16955;DHT22;8594;52.052;8.354;2023-07-13T17:48:26;21.70;99.90
16955;DHT22;8594;52.052;8.354;2023-07-13T17:50:54;21.70;99.90
16955;DHT22;8594;52.052;8.354;2023-07-13T17:53:22;21.70;99.90
16955;DHT22;8594;52.052;8.354;2023-07-13T17:55:50;21.60;99.90
16955;DHT22;8594;52.052;8.354;2023-07-13T17:58:19;21.60;99.90
16955;DHT22;8594;52.052;8.354;2023-07-13T18:00:47;21.70;99.90
16955;DHT22;8594;52.052;8.354;2023-07-13T18:03:16;21.60;99.90
16955;DHT22;8594;52.052;8.354;2023-07-13T18:05:49;21.60;99.90
16955;DHT22;8594;52.052;8.354;2023-07-13T18:08:22;21.50;99.90
16955;DHT22;8594;52.052;8.354;2023-07-13T18:10:51;21.40;99.90
16955;DHT22;8594;52.052;8.354;2023-07-13T18:13:23;21.40;99.90
16955;DHT22;8594;52.052;8.354;2023-07-13T18:15:51;21.40;99.90
16955;DHT22;8594;52.052;8.354;2023-07-13T18:18:20;21.30;99.90
16955;DHT22;8594;52.052;8.354;2023-07-13T18:20:48;21.30;99.90
16955;DHT22;8594;52.052;8.354;2023-07-13T18:23:17;21.40;99.90
16955;DHT22;8594;52.052;8.354;2023-07-13T18:25:46;21.30;99.90
16955;DHT22;8594;52.052;8.354;2023-07-13T18:28:15;21.30;99.90
16955;DHT22;8594;52.052;8.354;2023-07-13T18:30:47;21.20;99.90
16955;DHT22;8594;52.052;8.354;2023-07-13T18:33:21;21.20;99.90
16955;DHT22;8594;52.052;8.354;2023-07-13T18:35:50;21.30;99.90
16955;DHT22;8594;52.052;8.354;2023-07-13T18:38:20;21.30;99.90
16955;DHT22;8594;52.052;8.354;2023-07-13T18:40:49;21.20;99.90
16955;DHT22;8594;52.052;8.354;2023-07-13T18:43:16;21.20;99.90
16955;DHT22;8594;52.052;8.354;2023-07-13T18:45:45;21.20;99.90
16955;DHT22;8594;52.052;8.354;2023-07-13T18:48:16;21.30;99.90
16955;DHT22;8594;52.052;8.354;2023-07-13T18:50:48;21.20;99.90
16955;DHT22;8594;52.052;8.354;2023-07-13T18:53:18;21.20;99.90
16955;DHT22;8594;52.052;8.354;2023-07-13T18:55:46;21.20;99.90
16955;DHT22;8594;52.052;8.354;2023-07-13T18:58:14;21.20;99.90
16955;DHT22;8594;52.052;8.354;2023-07-13T19:00:48;21.20;99.90
16955;DHT22;8594;52.052;8.354;2023-07-13T19:03:24;21.20;99.90
16955;DHT22;8594;52.052;8.354;2023-07-13T19:05:56;21.10;99.90
16955;DHT22;8594;52.052;8.354;2023-07-13T19:08:25;21.30;99.90
16955;DHT22;8594;52.052;8.354;2023-07-13T19:10:53;21.40;99.90
16955;DHT22;8594;52.052;8.354;2023-07-13T19:13:22;21.20;99.90
16955;DHT22;8594;52.052;8.354;2023-07-13T19:15:52;21.10;99.90
16955;DHT22;8594;52.052;8.354;2023-07-13T19:18:21;21.00;99.90
16955;DHT22;8594;52.052;8.354;2023-07-13T19:20:52;20.80;99.90
16955;DHT22;8594;52.052;8.354;2023-07-13T19:23:29;20.70;99.90
16955;DHT22;8594;52.052;8.354;2023-07-13T19:26:02;20.80;99.90
16955;DHT22;8594;52.052;8.354;2023-07-13T19:28:35;20.80;99.90
16955;DHT22;8594;52.052;8.354;2023-07-13T19:31:16;20.80;99.90
16955;DHT22;8594;52.052;8.354;2023-07-13T19:33:45;20.70;99.90
16955;DHT22;8594;52.052;8.354;2023-07-13T19:36:16;20.60;99.90
16955;DHT22;8594;52.052;8.354;2023-07-13T19:38:46;20.70;99.90
16955;DHT22;8594;52.052;8.354;2023-07-13T19:41:17;20.70;99.90
16955;DHT22;8594;52.052;8.354;2023-07-13T19:43:45;20.80;99.90
16955;DHT22;8594;52.052;8.354;2023-07-13T19:46:20;20.70;99.90
16955;DHT22;8594;52.052;8.354;2023-07-13T19:48:52;20.70;99.90
16955;DHT22;8594;52.052;8.354;2023-07-13T19:51:20;20.80;99.90
16955;DHT22;8594;52.052;8.354;2023-07-13T19:53:48;20.70;99.90
16955;DHT22;8594;52.052;8.354;2023-07-13T19:56:16;20.70;99.90
16955;DHT22;8594;52.052;8.354;2023-07-13T19:58:44;20.60;99.90
16955;DHT22;8594;52.052;8.354;2023-07-13T20:01:12;20.70;99.90
16955;DHT22;8594;52.052;8.354;2023-07-13T20:03:40;20.60;99.90
16955;DHT22;8594;52.052;8.354;2023-07-13T20:06:20;20.50;99.90
16955;DHT22;8594;52.052;8.354;2023-07-13T20:08:54;20.50;99.90
16955;DHT22;8594;52.052;8.354;2023-07-13T20:11:22;20.40;99.90
16955;DHT22;8594;52.052;8.354;2023-07-13T20:13:49;20.30;99.90
16955;DHT22;8594;52.052;8.354;2023-07-13T20:16:16;20.30;99.90
16955;DHT22;8594;52.052;8.354;2023-07-13T20:18:45;20.40;99.90
16955;DHT22;8594;52.052;8.354;2023-07-13T20:21:14;20.30;99.90
16955;DHT22;8594;52.052;8.354;2023-07-13T20:23:42;20.30;99.90
16955;DHT22;8594;52.052;8.354;2023-07-13T20:26:10;20.30;99.90
16955;DHT22;8594;52.052;8.354;2023-07-13T20:28:37;20.30;99.90
16955;DHT22;8594;52.052;8.354;2023-07-13T20:31:05;20.30;99.90
16955;DHT22;8594;52.052;8.354;2023-07-13T20:33:39;20.30;99.90
16955;DHT22;8594;52.052;8.354;2023-07-13T20:36:11;20.40;99.90
16955;DHT22;8594;52.052;8.354;2023-07-13T20:38:38;20.30;99.90
16955;DHT22;8594;52.052;8.354;2023-07-13T20:41:05;20.20;99.90
16955;DHT22;8594;52.052;8.354;2023-07-13T20:43:32;20.20;99.90
16955;DHT22;8594;52.052;8.354;2023-07-13T20:46:01;20.10;99.90
16955;DHT22;8594;52.052;8.354;2023-07-13T20:48:33;20.20;99.90
16955;DHT22;8594;52.052;8.354;2023-07-13T20:51:05;20.10;99.90
16955;DHT22;8594;52.052;8.354;2023-07-13T20:53:36;20.00;99.90
16955;DHT22;8594;52.052;8.354;2023-07-13T20:56:09;20.10;99.90
16955;DHT22;8594;52.052;8.354;2023-07-13T20:58:38;20.10;99.90
16955;DHT22;8594;52.052;8.354;2023-07-13T21:01:08;20.10;99.90
16955;DHT22;8594;52.052;8.354;2023-07-13T21:03:41;19.90;99.90
